sensor_id;sensor_type;location;lat;lon;timestamp;pressure;altitude;pressure_sealevel;temperature;humidity
35704;BME280;21820;51.112;13.762;2023-05-11T00:00:10;99173.00;;;22.34;44.39
35704;BME280;21820;51.112;13.762;2023-05-11T00:02:35;99178.56;;;22.31;44.57
35704;BME280;21820;51.112;13.762;2023-05-11T00:05:00;99176.97;;;22.38;44.19
35704;BME280;21820;51.112;13.762;2023-05-11T00:07:26;99176.63;;;22.33;44.43
35704;BME280;21820;51.112;13.762;2023-05-11T00:09:51;99174.66;;;22.35;44.32
35704;BME280;21820;51.112;13.762;2023-05-11T00:12:16;99169.13;;;22.38;44.19
35704;BME280;21820;51.112;13.762;2023-05-11T00:14:41;99174.38;;;22.38;43.91
35704;BME280;21820;51.112;13.762;2023-05-11T00:17:06;99178.94;;;22.36;44.29
35704;BME280;21820;51.112;13.762;2023-05-11T00:19:32;99178.63;;;22.39;44.47
35704;BME280;21820;51.112;13.762;2023-05-11T00:21:57;99175.00;;;22.40;44.65
35704;BME280;21820;51.112;13.762;2023-05-11T00:24:23;99160.06;;;22.32;44.49
35704;BME280;21820;51.112;13.762;2023-05-11T00:26:48;99171.59;;;22.39;44.05
35704;BME280;21820;51.112;13.762;2023-05-11T00:29:13;99156.13;;;22.28;44.03
35704;BME280;21820;51.112;13.762;2023-05-11T00:31:38;99169.75;;;22.40;43.87
35704;BME280;21820;51.112;13.762;2023-05-11T00:34:04;99167.31;;;22.38;43.80
35704;BME280;21820;51.112;13.762;2023-05-11T00:36:29;99162.69;;;22.32;44.33
35704;BME280;21820;51.112;13.762;2023-05-11T00:38:54;99163.88;;;22.38;43.95
35704;BME280;21820;51.112;13.762;2023-05-11T00:41:20;99165.84;;;22.36;44.67
35704;BME280;21820;51.112;13.762;2023-05-11T00:43:45;99159.28;;;22.40;44.53
35704;BME280;21820;51.112;13.762;2023-05-11T00:46:11;99166.88;;;22.43;44.03
35704;BME280;21820;51.112;13.762;2023-05-11T00:48:36;99152.59;;;22.37;44.28
35704;BME280;21820;51.112;13.762;2023-05-11T00:51:02;99169.56;;;22.33;44.65
35704;BME280;21820;51.112;13.762;2023-05-11T00:53:27;99164.16;;;22.35;44.26
35704;BME280;21820;51.112;13.762;2023-05-11T00:55:53;99167.97;;;22.40;43.92
35704;BME280;21820;51.112;13.762;2023-05-11T00:58:18;99157.50;;;22.40;43.90
35704;BME280;21820;51.112;13.762;2023-05-11T01:00:43;99164.53;;;22.40;43.79
35704;BME280;21820;51.112;13.762;2023-05-11T01:03:11;99162.22;;;22.37;43.83
35704;BME280;21820;51.112;13.762;2023-05-11T01:08:14;99166.50;;;22.38;44.36
35704;BME280;21820;51.112;13.762;2023-05-11T01:10:43;99167.16;;;22.40;44.63
35704;BME280;21820;51.112;13.762;2023-05-11T01:15:41;99161.63;;;22.43;43.98
35704;BME280;21820;51.112;13.762;2023-05-11T01:18:18;99162.94;;;22.47;44.32
35704;BME280;21820;51.112;13.762;2023-05-11T01:20:45;99157.31;;;22.34;44.37
35704;BME280;21820;51.112;13.762;2023-05-11T01:31:10;99164.16;;;22.35;44.27
35704;BME280;21820;51.112;13.762;2023-05-11T01:33:36;99157.00;;;22.37;44.27
35704;BME280;21820;51.112;13.762;2023-05-11T01:36:04;99164.09;;;22.44;44.02
35704;BME280;21820;51.112;13.762;2023-05-11T01:38:31;99164.53;;;22.40;43.96
35704;BME280;21820;51.112;13.762;2023-05-11T01:40:57;99166.88;;;22.43;44.36
35704;BME280;21820;51.112;13.762;2023-05-11T01:43:24;99177.63;;;22.40;43.97
35704;BME280;21820;51.112;13.762;2023-05-11T01:45:50;99169.59;;;22.41;44.15
35704;BME280;21820;51.112;13.762;2023-05-11T01:48:18;99171.94;;;22.44;44.35
35704;BME280;21820;51.112;13.762;2023-05-11T01:50:44;99160.78;;;22.42;43.89
35704;BME280;21820;51.112;13.762;2023-05-11T01:53:10;99181.13;;;22.48;44.18
35704;BME280;21820;51.112;13.762;2023-05-11T01:55:36;99176.50;;;22.42;43.68
35704;BME280;21820;51.112;13.762;2023-05-11T01:58:03;99174.72;;;22.43;43.93
35704;BME280;21820;51.112;13.762;2023-05-11T02:00:30;99172.38;;;22.40;44.10
35704;BME280;21820;51.112;13.762;2023-05-11T02:02:56;99177.97;;;22.45;44.43
35704;BME280;21820;51.112;13.762;2023-05-11T02:05:23;99171.78;;;22.46;44.50
35704;BME280;21820;51.112;13.762;2023-05-11T02:07:48;99168.50;;;22.44;44.08
35704;BME280;21820;51.112;13.762;2023-05-11T02:10:15;99167.97;;;22.40;43.87
35704;BME280;21820;51.112;13.762;2023-05-11T02:12:41;99167.16;;;22.40;44.12
35704;BME280;21820;51.112;13.762;2023-05-11T02:15:07;99170.13;;;22.45;44.39
35704;BME280;21820;51.112;13.762;2023-05-11T02:17:33;99170.19;;;22.53;44.33
35704;BME280;21820;51.112;13.762;2023-05-11T02:20:00;99175.38;;;22.45;44.43
35704;BME280;21820;51.112;13.762;2023-05-11T02:22:27;99176.34;;;22.44;44.00
35704;BME280;21820;51.112;13.762;2023-05-11T02:24:53;99169.47;;;22.43;44.32
35704;BME280;21820;51.112;13.762;2023-05-11T02:27:18;99154.06;;;22.40;44.46
35704;BME280;21820;51.112;13.762;2023-05-11T02:29:44;99169.69;;;22.49;43.43
35704;BME280;21820;51.112;13.762;2023-05-11T02:32:11;99175.72;;;22.50;43.60
35704;BME280;21820;51.112;13.762;2023-05-11T02:34:41;99171.47;;;22.49;43.67
35704;BME280;21820;51.112;13.762;2023-05-11T02:37:11;99169.81;;;22.48;43.98
35704;BME280;21820;51.112;13.762;2023-05-11T02:39:37;99164.00;;;22.54;43.74
35704;BME280;21820;51.112;13.762;2023-05-11T02:42:21;99175.03;;;22.48;43.96
35704;BME280;21820;51.112;13.762;2023-05-11T02:44:57;99168.84;;;22.49;43.88
35704;BME280;21820;51.112;13.762;2023-05-11T02:47:26;99170.63;;;22.48;44.33
35704;BME280;21820;51.112;13.762;2023-05-11T02:49:52;99165.41;;;22.48;43.88
35704;BME280;21820;51.112;13.762;2023-05-11T02:52:20;99172.31;;;22.49;44.18
35704;BME280;21820;51.112;13.762;2023-05-11T02:54:47;99154.72;;;22.42;44.39
35704;BME280;21820;51.112;13.762;2023-05-11T03:12:35;99175.38;;;22.45;44.24
35704;BME280;21820;51.112;13.762;2023-05-11T03:15:01;99173.72;;;22.44;44.44
35704;BME280;21820;51.112;13.762;2023-05-11T03:17:27;99167.97;;;22.40;44.89
35704;BME280;21820;51.112;13.762;2023-05-11T03:19:54;99172.91;;;22.43;44.20
35704;BME280;21820;51.112;13.762;2023-05-11T03:22:19;99171.16;;;22.52;43.69
35704;BME280;21820;51.112;13.762;2023-05-11T03:24:46;99149.13;;;22.37;44.45
35704;BME280;21820;51.112;13.762;2023-05-11T03:27:11;99163.25;;;22.44;43.73
35704;BME280;21820;51.112;13.762;2023-05-11T03:29:37;99171.78;;;22.46;44.28
35704;BME280;21820;51.112;13.762;2023-05-11T03:32:04;99158.22;;;22.50;43.96
35704;BME280;21820;51.112;13.762;2023-05-11T03:34:29;99171.63;;;22.47;43.59
35704;BME280;21820;51.112;13.762;2023-05-11T03:36:54;99160.16;;;22.48;44.32
35704;BME280;21820;51.112;13.762;2023-05-11T03:39:21;99173.09;;;22.50;43.80
35704;BME280;21820;51.112;13.762;2023-05-11T03:41:48;99164.56;;;22.48;43.90
35704;BME280;21820;51.112;13.762;2023-05-11T03:44:13;99168.69;;;22.50;44.19
35704;BME280;21820;51.112;13.762;2023-05-11T03:46:41;99172.13;;;22.51;43.59
35704;BME280;21820;51.112;13.762;2023-05-11T03:49:09;99157.31;;;22.34;43.61
35704;BME280;21820;51.112;13.762;2023-05-11T03:51:35;99158.53;;;22.47;43.82
35704;BME280;21820;51.112;13.762;2023-05-11T03:54:00;99161.66;;;22.51;44.37
35704;BME280;21820;51.112;13.762;2023-05-11T03:56:26;99171.47;;;22.49;44.09
35704;BME280;21820;51.112;13.762;2023-05-11T03:58:51;99171.78;;;22.46;43.61
35704;BME280;21820;51.112;13.762;2023-05-11T04:01:17;99164.44;;;22.49;43.85
35704;BME280;21820;51.112;13.762;2023-05-11T04:03:46;99169.81;;;22.48;44.37
35704;BME280;21820;51.112;13.762;2023-05-11T04:06:12;99168.19;;;22.47;43.67
35704;BME280;21820;51.112;13.762;2023-05-11T04:08:37;99176.38;;;22.52;43.98
35704;BME280;21820;51.112;13.762;2023-05-11T04:11:02;99172.44;;;22.48;44.11
35704;BME280;21820;51.112;13.762;2023-05-11T04:13:28;99169.53;;;22.51;44.14
35704;BME280;21820;51.112;13.762;2023-05-11T04:15:53;99163.53;;;22.33;43.86
35704;BME280;21820;51.112;13.762;2023-05-11T04:18:18;99172.59;;;22.46;43.85
35704;BME280;21820;51.112;13.762;2023-05-11T04:20:43;99175.03;;;22.48;43.62
35704;BME280;21820;51.112;13.762;2023-05-11T04:23:08;99180.00;;;22.51;43.70
35704;BME280;21820;51.112;13.762;2023-05-11T04:25:34;99175.03;;;22.48;44.00
35704;BME280;21820;51.112;13.762;2023-05-11T04:27:59;99178.06;;;22.53;44.02
35704;BME280;21820;51.112;13.762;2023-05-11T04:30:24;99175.03;;;22.48;43.79
35704;BME280;21820;51.112;13.762;2023-05-11T04:32:50;99174.47;;;22.54;43.68
35704;BME280;21820;51.112;13.762;2023-05-11T04:35:15;99173.41;;;22.47;43.74
35704;BME280;21820;51.112;13.762;2023-05-11T04:37:40;99175.03;;;22.48;43.92
35704;BME280;21820;51.112;13.762;2023-05-11T04:40:06;99175.38;;;22.45;43.98
35704;BME280;21820;51.112;13.762;2023-05-11T04:42:31;99173.09;;;22.50;43.68
35704;BME280;21820;51.112;13.762;2023-05-11T04:44:56;99179.00;;;22.52;44.23
35704;BME280;21820;51.112;13.762;2023-05-11T04:47:22;99189.88;;;22.57;43.45
35704;BME280;21820;51.112;13.762;2023-05-11T04:49:47;99186.03;;;22.51;44.28
35704;BME280;21820;51.112;13.762;2023-05-11T04:52:12;99189.81;;;22.49;44.13
35704;BME280;21820;51.112;13.762;2023-05-11T04:54:37;99181.63;;;22.52;43.96
35704;BME280;21820;51.112;13.762;2023-05-11T04:57:03;99188.53;;;22.53;43.66
35704;BME280;21820;51.112;13.762;2023-05-11T04:59:28;99175.84;;;22.40;44.39
35704;BME280;21820;51.112;13.762;2023-05-11T05:01:53;99195.28;;;22.55;43.63
35704;BME280;21820;51.112;13.762;2023-05-11T05:04:19;99196.09;;;22.56;44.12
35704;BME280;21820;51.112;13.762;2023-05-11T05:06:44;99193.50;;;22.56;43.50
35704;BME280;21820;51.112;13.762;2023-05-11T05:09:09;99191.16;;;22.53;44.18
35704;BME280;21820;51.112;13.762;2023-05-11T05:11:35;99187.03;;;22.50;44.37
35704;BME280;21820;51.112;13.762;2023-05-11T05:14:00;99175.69;;;22.42;44.13
35704;BME280;21820;51.112;13.762;2023-05-11T05:16:25;99199.28;;;22.50;43.58
35704;BME280;21820;51.112;13.762;2023-05-11T05:18:50;99190.47;;;22.51;43.74
35704;BME280;21820;51.112;13.762;2023-05-11T05:21:16;99192.94;;;22.52;43.66
35704;BME280;21820;51.112;13.762;2023-05-11T05:23:41;99190.75;;;22.48;44.24
35704;BME280;21820;51.112;13.762;2023-05-11T05:26:06;99198.88;;;22.54;43.87
35704;BME280;21820;51.112;13.762;2023-05-11T05:28:32;99198.63;;;22.48;44.22
35704;BME280;21820;51.112;13.762;2023-05-11T05:30:58;99196.53;;;22.51;44.14
35704;BME280;21820;51.112;13.762;2023-05-11T05:33:23;99211.72;;;22.48;43.60
35704;BME280;21820;51.112;13.762;2023-05-11T05:35:48;99204.25;;;22.53;43.97
35704;BME280;21820;51.112;13.762;2023-05-11T05:38:13;99204.53;;;22.50;44.22
35704;BME280;21820;51.112;13.762;2023-05-11T05:40:39;99201.63;;;22.53;44.26
35704;BME280;21820;51.112;13.762;2023-05-11T05:43:04;99210.44;;;22.52;44.04
35704;BME280;21820;51.112;13.762;2023-05-11T05:45:30;99213.91;;;22.52;44.30
35704;BME280;21820;51.112;13.762;2023-05-11T05:47:55;99220.94;;;22.52;44.12
35704;BME280;21820;51.112;13.762;2023-05-11T05:50:21;99213.38;;;22.49;44.01
35704;BME280;21820;51.112;13.762;2023-05-11T05:52:46;99219.47;;;22.49;43.83
35704;BME280;21820;51.112;13.762;2023-05-11T05:55:11;99216.41;;;22.54;43.81
35704;BME280;21820;51.112;13.762;2023-05-11T05:57:36;99222.06;;;22.49;43.68
35704;BME280;21820;51.112;13.762;2023-05-11T06:00:02;99212.41;;;22.50;43.83
35704;BME280;21820;51.112;13.762;2023-05-11T06:02:27;99211.44;;;22.51;44.30
35704;BME280;21820;51.112;13.762;2023-05-11T06:04:52;99211.44;;;22.51;43.90
35704;BME280;21820;51.112;13.762;2023-05-11T06:07:17;99201.25;;;22.48;43.93
35704;BME280;21820;51.112;13.762;2023-05-11T06:09:43;99208.38;;;22.55;43.96
35704;BME280;21820;51.112;13.762;2023-05-11T06:12:08;99219.97;;;22.53;43.67
35704;BME280;21820;51.112;13.762;2023-05-11T06:14:34;99210.84;;;22.57;43.54
35704;BME280;21820;51.112;13.762;2023-05-11T06:16:59;99218.31;;;22.52;44.24
35704;BME280;21820;51.112;13.762;2023-05-11T06:19:24;99219.69;;;22.56;43.38
35704;BME280;21820;51.112;13.762;2023-05-11T06:21:50;99215.00;;;22.50;44.17
35704;BME280;21820;51.112;13.762;2023-05-11T06:24:15;99218.63;;;22.49;43.95
35704;BME280;21820;51.112;13.762;2023-05-11T06:26:40;99203.66;;;22.41;43.70
35704;BME280;21820;51.112;13.762;2023-05-11T06:29:05;99207.31;;;22.48;44.02
35704;BME280;21820;51.112;13.762;2023-05-11T06:31:31;99223.63;;;22.60;43.58
35704;BME280;21820;51.112;13.762;2023-05-11T06:33:56;99226.03;;;22.53;43.72
35704;BME280;21820;51.112;13.762;2023-05-11T06:36:22;99224.63;;;22.59;43.66
35704;BME280;21820;51.112;13.762;2023-05-11T06:38:47;99221.31;;;22.57;43.34
35704;BME280;21820;51.112;13.762;2023-05-11T06:41:12;99225.50;;;22.50;44.25
35704;BME280;21820;51.112;13.762;2023-05-11T06:43:38;99202.53;;;22.44;44.18
35704;BME280;21820;51.112;13.762;2023-05-11T06:46:03;99227.53;;;22.56;44.07
35704;BME280;21820;51.112;13.762;2023-05-11T06:48:28;99210.41;;;22.44;43.86
35704;BME280;21820;51.112;13.762;2023-05-11T06:50:54;99230.16;;;22.56;44.30
35704;BME280;21820;51.112;13.762;2023-05-11T06:53:19;99222.47;;;22.54;44.19
35704;BME280;21820;51.112;13.762;2023-05-11T06:55:44;99220.25;;;22.50;44.22
35704;BME280;21820;51.112;13.762;2023-05-11T06:58:10;99215.75;;;22.60;43.42
35704;BME280;21820;51.112;13.762;2023-05-11T07:00:35;99224.09;;;22.55;43.60
35704;BME280;21820;51.112;13.762;2023-05-11T07:03:00;99216.25;;;22.55;43.81
35704;BME280;21820;51.112;13.762;2023-05-11T07:05:25;99233.44;;;22.58;43.78
35704;BME280;21820;51.112;13.762;2023-05-11T07:07:51;99201.91;;;22.50;43.95
35704;BME280;21820;51.112;13.762;2023-05-11T07:10:17;99215.91;;;22.58;43.43
35704;BME280;21820;51.112;13.762;2023-05-11T07:12:42;99204.25;;;22.53;43.44
35704;BME280;21820;51.112;13.762;2023-05-11T07:15:07;99225.41;;;22.59;43.33
35704;BME280;21820;51.112;13.762;2023-05-11T07:17:33;99220.16;;;22.59;43.70
35704;BME280;21820;51.112;13.762;2023-05-11T07:19:58;99221.00;;;22.60;43.76
35704;BME280;21820;51.112;13.762;2023-05-11T07:22:23;99221.31;;;22.57;43.80
35704;BME280;21820;51.112;13.762;2023-05-11T07:24:48;99225.22;;;22.53;43.74
35704;BME280;21820;51.112;13.762;2023-05-11T07:27:14;99219.00;;;22.54;43.62
35704;BME280;21820;51.112;13.762;2023-05-11T07:29:39;99206.47;;;22.48;43.78
35704;BME280;21820;51.112;13.762;2023-05-11T07:32:04;99223.25;;;22.55;43.73
35704;BME280;21820;51.112;13.762;2023-05-11T07:34:29;99228.19;;;22.58;43.42
35704;BME280;21820;51.112;13.762;2023-05-11T07:36:55;99227.16;;;22.51;44.13
35704;BME280;21820;51.112;13.762;2023-05-11T07:39:20;99228.94;;;22.50;44.13
35704;BME280;21820;51.112;13.762;2023-05-11T07:41:45;99232.78;;;22.56;43.47
35704;BME280;21820;51.112;13.762;2023-05-11T07:44:11;99229.19;;;22.57;44.12
35704;BME280;21820;51.112;13.762;2023-05-11T07:46:36;99207.16;;;22.50;43.76
35704;BME280;21820;51.112;13.762;2023-05-11T07:49:01;99230.97;;;22.56;43.90
35704;BME280;21820;51.112;13.762;2023-05-11T07:51:27;99222.00;;;22.59;43.72
35704;BME280;21820;51.112;13.762;2023-05-11T07:53:52;99225.72;;;22.56;44.05
35704;BME280;21820;51.112;13.762;2023-05-11T07:56:17;99226.56;;;22.57;43.41
35704;BME280;21820;51.112;13.762;2023-05-11T07:58:42;99226.41;;;22.58;44.00
35704;BME280;21820;51.112;13.762;2023-05-11T08:01:08;99227.28;;;22.67;43.69
35704;BME280;21820;51.112;13.762;2023-05-11T08:03:33;99240.84;;;22.62;44.04
35704;BME280;21820;51.112;13.762;2023-05-11T08:05:58;99228.91;;;22.68;43.80
35704;BME280;21820;51.112;13.762;2023-05-11T08:08:23;99233.16;;;22.61;43.69
35704;BME280;21820;51.112;13.762;2023-05-11T08:10:49;99237.34;;;22.54;43.50
35704;BME280;21820;51.112;13.762;2023-05-11T08:13:14;99229.94;;;22.49;44.16
35704;BME280;21820;51.112;13.762;2023-05-11T08:15:39;99235.78;;;22.61;43.43
35704;BME280;21820;51.112;13.762;2023-05-11T08:18:04;99243.75;;;22.59;44.30
35704;BME280;21820;51.112;13.762;2023-05-11T08:20:30;99235.25;;;22.57;43.79
35704;BME280;21820;51.112;13.762;2023-05-11T08:22:55;99233.44;;;22.58;43.93
35704;BME280;21820;51.112;13.762;2023-05-11T08:25:21;99237.56;;;22.60;43.40
35704;BME280;21820;51.112;13.762;2023-05-11T08:27:47;99223.41;;;22.53;43.74
35704;BME280;21820;51.112;13.762;2023-05-11T08:30:12;99233.16;;;22.61;43.39
35704;BME280;21820;51.112;13.762;2023-05-11T08:32:37;99230.44;;;22.53;43.39
35704;BME280;21820;51.112;13.762;2023-05-11T08:35:03;99233.50;;;22.66;43.39
35704;BME280;21820;51.112;13.762;2023-05-11T08:37:29;99242.13;;;22.58;43.60
35704;BME280;21820;51.112;13.762;2023-05-11T08:39:55;99246.09;;;22.62;43.59
35704;BME280;21820;51.112;13.762;2023-05-11T08:42:20;99241.38;;;22.66;43.96
35704;BME280;21820;51.112;13.762;2023-05-11T08:44:47;99237.41;;;22.62;43.27
35704;BME280;21820;51.112;13.762;2023-05-11T08:47:13;99243.31;;;22.64;43.33
35704;BME280;21820;51.112;13.762;2023-05-11T08:49:39;99241.66;;;22.63;43.75
35704;BME280;21820;51.112;13.762;2023-05-11T08:52:04;99233.94;;;22.61;43.49
35704;BME280;21820;51.112;13.762;2023-05-11T08:54:30;99234.94;;;22.60;44.25
35704;BME280;21820;51.112;13.762;2023-05-11T08:56:55;99238.19;;;22.54;43.96
35704;BME280;21820;51.112;13.762;2023-05-11T08:59:21;99233.44;;;22.58;43.86
35704;BME280;21820;51.112;13.762;2023-05-11T09:01:47;99236.38;;;22.55;44.13
35704;BME280;21820;51.112;13.762;2023-05-11T09:04:14;99243.91;;;22.58;43.54
35704;BME280;21820;51.112;13.762;2023-05-11T09:06:40;99232.41;;;22.51;43.62
35704;BME280;21820;51.112;13.762;2023-05-11T09:09:06;99238.38;;;22.61;43.49
35704;BME280;21820;51.112;13.762;2023-05-11T09:11:31;99253.47;;;22.67;43.39
35704;BME280;21820;51.112;13.762;2023-05-11T09:13:57;99233.16;;;22.61;43.39
35704;BME280;21820;51.112;13.762;2023-05-11T09:16:22;99242.31;;;22.65;43.55
35704;BME280;21820;51.112;13.762;2023-05-11T09:18:48;99257.16;;;22.56;44.05
35704;BME280;21820;51.112;13.762;2023-05-11T09:21:14;99236.06;;;22.58;43.46
35704;BME280;21820;51.112;13.762;2023-05-11T09:23:39;99227.59;;;22.64;43.24
35704;BME280;21820;51.112;13.762;2023-05-11T09:26:12;99234.16;;;22.68;43.96
35704;BME280;21820;51.112;13.762;2023-05-11T09:28:37;99228.19;;;22.58;44.09
35704;BME280;21820;51.112;13.762;2023-05-11T09:31:02;99230.56;;;22.69;43.84
35704;BME280;21820;51.112;13.762;2023-05-11T09:33:27;99233.78;;;22.63;43.57
35704;BME280;21820;51.112;13.762;2023-05-11T09:35:53;99232.84;;;22.64;43.50
35704;BME280;21820;51.112;13.762;2023-05-11T09:38:18;99220.66;;;22.55;43.27
35704;BME280;21820;51.112;13.762;2023-05-11T09:40:51;99231.50;;;22.60;43.43
35704;BME280;21820;51.112;13.762;2023-05-11T09:43:27;99211.34;;;22.60;43.56
35704;BME280;21820;51.112;13.762;2023-05-11T09:45:54;99221.72;;;22.70;43.16
35704;BME280;21820;51.112;13.762;2023-05-11T09:50:45;99223.97;;;22.65;44.05
35704;BME280;21820;51.112;13.762;2023-05-11T09:53:11;99233.16;;;22.61;43.68
35704;BME280;21820;51.112;13.762;2023-05-11T09:55:36;99231.50;;;22.60;43.44
35704;BME280;21820;51.112;13.762;2023-05-11T09:58:02;99228.03;;;22.59;43.85
35704;BME280;21820;51.112;13.762;2023-05-11T10:00:28;99238.06;;;22.64;43.86
35704;BME280;21820;51.112;13.762;2023-05-11T10:03:03;99225.94;;;22.63;43.27
35704;BME280;21820;51.112;13.762;2023-05-11T10:05:32;99228.91;;;22.68;43.24
35704;BME280;21820;51.112;13.762;2023-05-11T10:07:58;99225.34;;;22.69;43.21
35704;BME280;21820;51.112;13.762;2023-05-11T10:10:24;99225.50;;;22.67;43.61
35704;BME280;21820;51.112;13.762;2023-05-11T10:12:50;99220.69;;;22.63;43.41
35704;BME280;21820;51.112;13.762;2023-05-11T10:15:15;99224.19;;;22.71;43.85
35704;BME280;21820;51.112;13.762;2023-05-11T10:17:42;99229.41;;;22.71;43.42
35704;BME280;21820;51.112;13.762;2023-05-11T10:20:08;99224.66;;;22.67;43.30
35704;BME280;21820;51.112;13.762;2023-05-11T10:22:34;99217.72;;;22.58;44.20
35704;BME280;21820;51.112;13.762;2023-05-11T10:25:00;99226.91;;;22.62;43.68
35704;BME280;21820;51.112;13.762;2023-05-11T10:27:26;99216.78;;;22.67;43.63
35704;BME280;21820;51.112;13.762;2023-05-11T10:29:51;99240.84;;;22.62;44.09
35704;BME280;21820;51.112;13.762;2023-05-11T10:32:17;99224.97;;;22.64;43.69
35704;BME280;21820;51.112;13.762;2023-05-11T10:34:43;99222.34;;;22.64;44.17
35704;BME280;21820;51.112;13.762;2023-05-11T10:37:10;99219.56;;;22.65;43.97
35704;BME280;21820;51.112;13.762;2023-05-11T10:39:36;99212.19;;;22.61;43.44
35704;BME280;21820;51.112;13.762;2023-05-11T11:00:08;99209.56;;;22.61;43.38
35704;BME280;21820;51.112;13.762;2023-05-11T11:02:37;99212.81;;;22.63;43.97
35704;BME280;21820;51.112;13.762;2023-05-11T11:05:02;99227.28;;;22.67;43.28
35704;BME280;21820;51.112;13.762;2023-05-11T11:07:54;99212.81;;;22.63;43.48
35704;BME280;21820;51.112;13.762;2023-05-11T11:10:28;99210.56;;;22.68;43.63
35704;BME280;21820;51.112;13.762;2023-05-11T11:13:00;99220.88;;;22.69;43.54
35704;BME280;21820;51.112;13.762;2023-05-11T11:15:25;99226.28;;;22.68;43.47
35704;BME280;21820;51.112;13.762;2023-05-11T11:20:48;99208.25;;;22.65;43.78
35704;BME280;21820;51.112;13.762;2023-05-11T11:25:58;99214.22;;;22.75;43.10
35704;BME280;21820;51.112;13.762;2023-05-11T11:28:23;99209.28;;;22.72;43.16
35704;BME280;21820;51.112;13.762;2023-05-11T11:31:02;99203.66;;;22.59;43.82
35704;BME280;21820;51.112;13.762;2023-05-11T11:33:34;99222.72;;;22.69;43.58
35704;BME280;21820;51.112;13.762;2023-05-11T11:35:59;99222.34;;;22.64;43.61
35704;BME280;21820;51.112;13.762;2023-05-11T11:38:25;99219.25;;;22.68;43.68
35704;BME280;21820;51.112;13.762;2023-05-11T11:40:51;99214.84;;;22.69;43.85
35704;BME280;21820;51.112;13.762;2023-05-11T11:43:23;99215.44;;;22.63;44.00
35704;BME280;21820;51.112;13.762;2023-05-11T11:45:58;99222.72;;;22.69;43.76
35704;BME280;21820;51.112;13.762;2023-05-11T11:48:37;99231.69;;;22.66;43.83
35704;BME280;21820;51.112;13.762;2023-05-11T11:51:12;99228.63;;;22.71;43.90
35704;BME280;21820;51.112;13.762;2023-05-11T12:01:06;99225.66;;;22.66;44.01
35704;BME280;21820;51.112;13.762;2023-05-11T12:03:33;99244.94;;;22.65;43.63
35704;BME280;21820;51.112;13.762;2023-05-11T12:06:00;99249.59;;;22.71;43.73
35704;BME280;21820;51.112;13.762;2023-05-11T12:08:25;99243.00;;;22.67;43.85
35704;BME280;21820;51.112;13.762;2023-05-11T12:10:53;99245.78;;;22.65;43.53
35704;BME280;21820;51.112;13.762;2023-05-11T12:13:18;99253.16;;;22.70;43.11
35704;BME280;21820;51.112;13.762;2023-05-11T12:15:45;99248.25;;;22.67;43.34
35704;BME280;21820;51.112;13.762;2023-05-11T12:18:20;99254.16;;;22.69;44.00
35704;BME280;21820;51.112;13.762;2023-05-11T12:20:45;99249.88;;;22.68;43.21
35704;BME280;21820;51.112;13.762;2023-05-11T12:23:10;99251.22;;;22.72;43.58
35704;BME280;21820;51.112;13.762;2023-05-11T12:25:36;99244.34;;;22.71;43.53
35704;BME280;21820;51.112;13.762;2023-05-11T12:28:01;99247.28;;;22.76;43.10
35704;BME280;21820;51.112;13.762;2023-05-11T12:30:30;99253.69;;;22.73;43.81
35704;BME280;21820;51.112;13.762;2023-05-11T12:32:56;99245.47;;;22.68;43.72
35704;BME280;21820;51.112;13.762;2023-05-11T12:35:27;99245.47;;;22.68;43.67
35704;BME280;21820;51.112;13.762;2023-05-11T12:37:52;99249.22;;;22.66;43.92
35704;BME280;21820;51.112;13.762;2023-05-11T12:40:18;99248.59;;;22.72;43.15
35704;BME280;21820;51.112;13.762;2023-05-11T12:42:50;99251.72;;;22.75;43.74
35704;BME280;21820;51.112;13.762;2023-05-11T12:45:16;99252.84;;;22.73;43.79
35704;BME280;21820;51.112;13.762;2023-05-11T12:47:41;99249.59;;;22.71;43.42
35704;BME280;21820;51.112;13.762;2023-05-11T12:50:07;99236.41;;;22.63;43.53
35704;BME280;21820;51.112;13.762;2023-05-11T12:52:33;99251.84;;;22.66;43.94
35704;BME280;21820;51.112;13.762;2023-05-11T12:54:58;99248.25;;;22.67;43.23
35704;BME280;21820;51.112;13.762;2023-05-11T12:57:25;99249.47;;;22.55;43.37
35704;BME280;21820;51.112;13.762;2023-05-11T13:02:42;99250.91;;;22.75;43.41
35704;BME280;21820;51.112;13.762;2023-05-11T13:05:11;99257.72;;;22.68;43.32
35704;BME280;21820;51.112;13.762;2023-05-11T13:07:37;99254.81;;;22.71;43.86
35704;BME280;21820;51.112;13.762;2023-05-11T13:10:02;99250.91;;;22.75;43.63
35704;BME280;21820;51.112;13.762;2023-05-11T13:12:28;99253.47;;;22.67;43.66
35704;BME280;21820;51.112;13.762;2023-05-11T13:17:29;99249.28;;;22.74;43.96
35704;BME280;21820;51.112;13.762;2023-05-11T13:19:55;99245.97;;;22.72;43.75
35704;BME280;21820;51.112;13.762;2023-05-11T13:22:20;99244.63;;;22.68;43.84
35704;BME280;21820;51.112;13.762;2023-05-11T13:24:45;99240.69;;;22.64;43.39
35704;BME280;21820;51.112;13.762;2023-05-11T13:27:11;99243.16;;;22.65;43.60
35704;BME280;21820;51.112;13.762;2023-05-11T13:29:36;99228.88;;;22.60;43.42
35704;BME280;21820;51.112;13.762;2023-05-11T13:32:01;99247.56;;;22.65;43.95
35704;BME280;21820;51.112;13.762;2023-05-11T13:34:26;99243.00;;;22.67;43.95
35704;BME280;21820;51.112;13.762;2023-05-11T13:36:52;99245.00;;;22.73;43.80
35704;BME280;21820;51.112;13.762;2023-05-11T13:39:17;99236.00;;;22.75;43.57
35704;BME280;21820;51.112;13.762;2023-05-11T13:41:43;99235.19;;;22.75;43.97
35704;BME280;21820;51.112;13.762;2023-05-11T13:44:08;99227.63;;;22.72;43.71
35704;BME280;21820;51.112;13.762;2023-05-11T13:46:34;99220.69;;;22.63;43.15
35704;BME280;21820;51.112;13.762;2023-05-11T13:48:59;99227.63;;;22.72;43.96
35704;BME280;21820;51.112;13.762;2023-05-11T13:51:24;99210.53;;;22.60;44.16